Terminal Aerodrome Forecast
Issued by NWS

Home | Current Version | Previous Version | Text Only | Print | Product List | Glossary On
Versions: 1 2 3 4 5 6 7 8 9 10 11 12 13 14 15 16 17
017
FTUS43 KOAX 232350
TAFBFF
TAF
KBFF 232350Z 2400/2424 06015G25KT 1SM -SN BR OVC015
      TEMPO 2400/2402 1/2SM SN FG OVC009
     FM240200 02012KT 1SM -SN BR OVC012
     FM241500 36008KT 1SM -SN BR OVC007
     FM242100 32005KT P6SM OVC050=

USA.gov is the U.S. government's official web portal to all federal, state and local government web resources and services.